PUA253 FQMA-FMMI
Flight info
| Callsign | PUA253 |
|---|---|
| Flight time | N/A |
| Altitude | 27000 |
| Route | UVERO1A USUMO UB536 EROPA/N0483F390 UB536 VSO/N0483F410 UB536 SOPVI DCT TW TW1B |
| Aircraft | B772/H-SDE2E3FGHIJ5LORVWXY/LB1D1 |
Departure
| Time | N/A |
|---|---|
| Airport | Maputo Airport (FQMA) |
Arrival
| Time | 2026-04-25 15:53 |
|---|---|
| Airport | Ivato International Airport (FMMI) |
| Time | Latitude | Longitude | Altitude | Speed | Heading |
|---|---|---|---|---|---|
| 2026-04-25 15:25 | -19.63244 | 45.74772 | 34981 ft | 497 kts | 59° |
| 2026-04-25 15:26 | -19.60201 | 45.81359 | 34986 ft | 497 kts | 59° |
| 2026-04-25 15:26 | -19.57156 | 45.87944 | 35000 ft | 497 kts | 59° |
| 2026-04-25 15:27 | -19.54112 | 45.94521 | 35010 ft | 497 kts | 59° |
| 2026-04-25 15:28 | -19.49558 | 46.04349 | 35008 ft | 497 kts | 59° |
| 2026-04-25 15:28 | -19.46508 | 46.10924 | 35022 ft | 497 kts | 59° |
| 2026-04-25 15:29 | -19.43450 | 46.17513 | 35029 ft | 498 kts | 59° |
| 2026-04-25 15:29 | -19.40387 | 46.24105 | 35022 ft | 498 kts | 59° |
| 2026-04-25 15:30 | -19.37331 | 46.30679 | 35030 ft | 497 kts | 60° |
| 2026-04-25 15:30 | -19.34295 | 46.37214 | 35048 ft | 497 kts | 60° |
| 2026-04-25 15:30 | -19.32770 | 46.40497 | 34776 ft | 496 kts | 60° |
| 2026-04-25 15:31 | -19.31259 | 46.43753 | 34223 ft | 486 kts | 60° |
| 2026-04-25 15:31 | -19.29790 | 46.46923 | 33279 ft | 476 kts | 60° |
| 2026-04-25 15:31 | -19.28321 | 46.50108 | 31585 ft | 490 kts | 61° |
| 2026-04-25 15:31 | -19.26817 | 46.53384 | 30010 ft | 492 kts | 61° |
| 2026-04-25 15:32 | -19.25320 | 46.56608 | 28247 ft | 486 kts | 61° |
| 2026-04-25 15:32 | -19.23844 | 46.59723 | 27712 ft | 475 kts | 60° |
| 2026-04-25 15:32 | -19.22324 | 46.62823 | 26977 ft | 473 kts | 60° |
| 2026-04-25 15:33 | -19.19298 | 46.69037 | 25597 ft | 480 kts | 61° |
| 2026-04-25 15:33 | -19.17778 | 46.72175 | 24868 ft | 476 kts | 62° |
| 2026-04-25 15:33 | -19.16303 | 46.75219 | 24152 ft | 455 kts | 62° |
| 2026-04-25 15:33 | -19.14903 | 46.78140 | 23439 ft | 436 kts | 62° |
| 2026-04-25 15:34 | -19.13565 | 46.80958 | 22728 ft | 420 kts | 62° |
| 2026-04-25 15:34 | -19.12280 | 46.83686 | 22108 ft | 412 kts | 62° |
| 2026-04-25 15:34 | -19.11004 | 46.86415 | 21510 ft | 420 kts | 63° |
| 2026-04-25 15:34 | -19.10132 | 46.88291 | 21212 ft | 436 kts | 63° |
| 2026-04-25 15:35 | -19.07240 | 46.94524 | 20752 ft | 363 kts | 62° |
| 2026-04-25 15:35 | -19.06160 | 46.96810 | 20611 ft | 334 kts | 62° |
| 2026-04-25 15:35 | -19.05156 | 46.98931 | 20476 ft | 314 kts | 62° |
| 2026-04-25 15:36 | -19.03288 | 47.02930 | 20280 ft | 312 kts | 63° |
| 2026-04-25 15:36 | -19.02291 | 47.05079 | 20150 ft | 339 kts | 62° |
| 2026-04-25 15:36 | -19.01255 | 47.07324 | 19792 ft | 346 kts | 63° |
| 2026-04-25 15:37 | -19.00215 | 47.09582 | 19433 ft | 337 kts | 62° |
| 2026-04-25 15:37 | -18.99207 | 47.11766 | 19083 ft | 324 kts | 63° |
| 2026-04-25 15:37 | -18.98243 | 47.13859 | 18741 ft | 310 kts | 62° |
| 2026-04-25 15:37 | -18.97317 | 47.15864 | 18433 ft | 298 kts | 62° |
| 2026-04-25 15:38 | -18.96410 | 47.17805 | 18081 ft | 291 kts | 62° |
| 2026-04-25 15:38 | -18.95508 | 47.19714 | 17763 ft | 291 kts | 62° |
| 2026-04-25 15:38 | -18.94584 | 47.21656 | 17473 ft | 303 kts | 62° |
| 2026-04-25 15:38 | -18.93383 | 47.23577 | 17179 ft | 324 kts | 41° |
| 2026-04-25 15:39 | -18.91409 | 47.24663 | 16768 ft | 321 kts | 7° |
| 2026-04-25 15:39 | -18.89260 | 47.24417 | 16447 ft | 306 kts | 330° |
| 2026-04-25 15:39 | -18.87556 | 47.23164 | 16089 ft | 295 kts | 319° |
| 2026-04-25 15:39 | -18.85803 | 47.22095 | 15771 ft | 289 kts | 338° |
| 2026-04-25 15:40 | -18.83847 | 47.21690 | 15527 ft | 288 kts | 354° |
| 2026-04-25 15:40 | -18.82507 | 47.21684 | 15353 ft | 294 kts | 0° |
| 2026-04-25 15:40 | -18.79697 | 47.21909 | 14937 ft | 317 kts | 2° |
| 2026-04-25 15:40 | -18.77487 | 47.22125 | 14544 ft | 318 kts | 3° |
| 2026-04-25 15:41 | -18.75321 | 47.22391 | 14188 ft | 311 kts | 4° |
| 2026-04-25 15:41 | -18.73224 | 47.22212 | 13905 ft | 295 kts | 335° |
| 2026-04-25 15:41 | -18.71585 | 47.21025 | 13036 ft | 285 kts | 304° |
| 2026-04-25 15:41 | -18.70534 | 47.19275 | 12073 ft | 282 kts | 289° |
| 2026-04-25 15:42 | -18.69928 | 47.17342 | 11230 ft | 274 kts | 274° |
| 2026-04-25 15:42 | -18.69682 | 47.15368 | 10433 ft | 268 kts | 271° |
| 2026-04-25 15:42 | -18.69475 | 47.13423 | 9573 ft | 265 kts | 272° |
| 2026-04-25 15:42 | -18.69251 | 47.11532 | 8936 ft | 252 kts | 271° |
| 2026-04-25 15:43 | -18.69011 | 47.09764 | 8371 ft | 238 kts | 278° |
| 2026-04-25 15:43 | -18.68698 | 47.08086 | 7830 ft | 226 kts | 261° |
| 2026-04-25 15:43 | -18.69312 | 47.06701 | 7293 ft | 204 kts | 213° |
| 2026-04-25 15:43 | -18.70481 | 47.05861 | 7133 ft | 209 kts | 201° |
| 2026-04-25 15:44 | -18.71815 | 47.05535 | 6989 ft | 192 kts | 158° |
| 2026-04-25 15:44 | -18.72882 | 47.06254 | 6985 ft | 183 kts | 114° |
| 2026-04-25 15:44 | -18.73311 | 47.07512 | 6955 ft | 184 kts | 100° |
| 2026-04-25 15:44 | -18.73650 | 47.08812 | 6963 ft | 183 kts | 99° |
| 2026-04-25 15:45 | -18.73939 | 47.10127 | 6971 ft | 185 kts | 96° |
| 2026-04-25 15:45 | -18.74187 | 47.11465 | 6991 ft | 187 kts | 94° |
| 2026-04-25 15:45 | -18.74409 | 47.12786 | 6980 ft | 179 kts | 94° |
| 2026-04-25 15:45 | -18.74538 | 47.13613 | 6959 ft | 166 kts | 93° |
| 2026-04-25 15:46 | -18.74766 | 47.15158 | 6961 ft | 156 kts | 92° |
| 2026-04-25 15:46 | -18.74938 | 47.16308 | 7008 ft | 164 kts | 94° |
| 2026-04-25 15:46 | -18.75129 | 47.17526 | 7010 ft | 168 kts | 93° |
| 2026-04-25 15:46 | -18.75316 | 47.18738 | 7003 ft | 166 kts | 94° |
| 2026-04-25 15:47 | -18.75500 | 47.19952 | 6999 ft | 169 kts | 94° |
| 2026-04-25 15:47 | -18.75684 | 47.21177 | 6982 ft | 169 kts | 93° |
| 2026-04-25 15:47 | -18.75866 | 47.22407 | 7002 ft | 172 kts | 94° |
| 2026-04-25 15:47 | -18.76056 | 47.23674 | 7015 ft | 177 kts | 94° |
| 2026-04-25 15:48 | -18.76245 | 47.24936 | 6996 ft | 175 kts | 94° |
| 2026-04-25 15:48 | -18.76431 | 47.26185 | 6998 ft | 169 kts | 94° |
| 2026-04-25 15:48 | -18.76611 | 47.27408 | 7005 ft | 168 kts | 94° |
| 2026-04-25 15:48 | -18.76793 | 47.28612 | 7021 ft | 161 kts | 94° |
| 2026-04-25 15:49 | -18.76959 | 47.29731 | 7019 ft | 149 kts | 92° |
| 2026-04-25 15:49 | -18.77123 | 47.30828 | 7034 ft | 155 kts | 93° |
| 2026-04-25 15:49 | -18.77297 | 47.31963 | 6860 ft | 156 kts | 94° |
| 2026-04-25 15:49 | -18.77466 | 47.33081 | 6673 ft | 154 kts | 92° |
| 2026-04-25 15:50 | -18.77629 | 47.34176 | 6485 ft | 149 kts | 92° |
| 2026-04-25 15:50 | -18.77790 | 47.35248 | 6298 ft | 148 kts | 92° |
| 2026-04-25 15:50 | -18.77950 | 47.36319 | 6112 ft | 147 kts | 92° |
| 2026-04-25 15:50 | -18.78109 | 47.37380 | 5909 ft | 145 kts | 93° |
| 2026-04-25 15:51 | -18.78269 | 47.38441 | 5730 ft | 148 kts | 93° |
| 2026-04-25 15:51 | -18.78377 | 47.39155 | 5619 ft | 149 kts | 92° |
| 2026-04-25 15:51 | -18.78594 | 47.40588 | 5332 ft | 145 kts | 92° |
| 2026-04-25 15:51 | -18.78746 | 47.41625 | 5158 ft | 145 kts | 94° |
| 2026-04-25 15:52 | -18.78894 | 47.42610 | 4953 ft | 130 kts | 91° |
| 2026-04-25 15:52 | -18.79035 | 47.43560 | 4798 ft | 143 kts | 91° |
| 2026-04-25 15:52 | -18.79199 | 47.44625 | 4625 ft | 149 kts | 90° |
| 2026-04-25 15:52 | -18.79338 | 47.45706 | 4434 ft | 142 kts | 89° |
| 2026-04-25 15:53 | -18.79459 | 47.46683 | 4270 ft | 126 kts | 95° |
| 2026-04-25 15:53 | -18.79620 | 47.47525 | 4181 ft | 102 kts | 103° |
| 2026-04-25 15:53 | -18.79710 | 47.48063 | 4168 ft | 41 kts | 98° |
| 2026-04-25 15:53 | -18.79729 | 47.48189 | 4162 ft | 14 kts | 101° |
| 2026-04-25 15:54 | -18.79735 | 47.48236 | 4160 ft | 3 kts | 92° |
| 2026-04-25 15:54 | -18.79739 | 47.48263 | 4159 ft | 3 kts | 119° |
| 2026-04-25 15:54 | -18.79761 | 47.48239 | 4160 ft | 12 kts | 267° |
| 2026-04-25 15:54 | -18.79750 | 47.48161 | 4164 ft | 7 kts | 277° |
| 2026-04-25 15:55 | -18.79734 | 47.48069 | 4167 ft | 16 kts | 281° |
| 2026-04-25 15:55 | -18.79746 | 47.47959 | 4171 ft | 16 kts | 240° |
| 2026-04-25 15:55 | -18.79801 | 47.47853 | 4172 ft | 17 kts | 245° |
| 2026-04-25 15:55 | -18.79826 | 47.47729 | 4171 ft | 17 kts | 265° |
| 2026-04-25 15:56 | -18.79854 | 47.47653 | 4172 ft | 10 kts | 216° |
| 2026-04-25 15:56 | -18.79858 | 47.47651 | 4174 ft | 0 kts | 210° |